createdAt,value
2023-03-19T00:01:46.581Z,23.8
2023-03-19T00:06:21.088Z,27.5
2023-03-19T00:11:13.449Z,35.7
2023-03-19T00:17:03.913Z,27.9
2023-03-19T00:21:46.240Z,31.0
2023-03-19T00:26:32.673Z,28.4
2023-03-19T00:31:39.163Z,35.0
2023-03-19T00:36:45.584Z,39.9
2023-03-19T00:41:51.931Z,23.7
2023-03-19T00:46:58.320Z,27.5
2023-03-19T00:52:24.766Z,20.3
2023-03-19T00:57:35.146Z,14.9
2023-03-19T01:02:17.486Z,17.7
2023-03-19T01:07:23.965Z,16.2
2023-03-19T01:12:30.476Z,20.7
2023-03-19T01:17:36.952Z,24.3
2023-03-19T01:22:43.327Z,17.9
2023-03-19T01:28:49.889Z,15.0
2023-03-19T01:33:20.199Z,16.7
2023-03-19T01:38:02.565Z,17.2
2023-03-19T01:43:08.931Z,16.7
2023-03-19T01:48:15.330Z,20.7
2023-03-19T01:53:21.699Z,16.7
2023-03-19T02:01:12.542Z,18.3
2023-03-19T02:06:18.945Z,14.2
2023-03-19T02:08:41.026Z,21.8
2023-03-19T02:14:31.490Z,14.7
2023-03-19T02:19:13.817Z,18.7
2023-03-19T02:24:00.185Z,13.6
2023-03-19T02:29:30.593Z,15.1
2023-03-19T02:34:37.066Z,15.0
2023-03-19T02:39:19.421Z,14.4
2023-03-19T02:44:25.764Z,13.7
2023-03-19T02:49:32.142Z,13.6
2023-03-19T02:54:38.553Z,15.1
2023-03-19T02:59:44.957Z,17.5
2023-03-19T03:04:51.341Z,14.6
2023-03-19T03:09:57.745Z,14.2
2023-03-19T03:15:04.107Z,14.5
2023-03-19T03:20:10.497Z,13.1
2023-03-19T03:25:16.892Z,12.0
2023-03-19T03:30:23.238Z,17.8
2023-03-19T03:36:13.706Z,17.2
2023-03-19T03:40:40.061Z,17.9
2023-03-19T03:45:42.637Z,20.2
2023-03-19T03:51:12.954Z,16.5
2023-03-19T03:55:55.528Z,20.6
2023-03-19T04:01:01.908Z,15.0
2023-03-19T04:06:28.314Z,13.8
2023-03-19T04:11:14.681Z,20.5
2023-03-19T04:17:05.181Z,13.8
2023-03-19T04:22:39.635Z,17.7
2023-03-19T04:26:33.896Z,25.3
2023-03-19T04:32:24.463Z,19.6
2023-03-19T04:37:07.002Z,19.2
2023-03-19T04:42:07.406Z,17.7
2023-03-19T04:46:59.744Z,19.1
2023-03-19T04:52:06.131Z,18.4
2023-03-19T04:58:24.633Z,16.5
2023-03-19T05:02:42.961Z,17.4
2023-03-19T05:07:25.618Z,21.9
2023-03-19T05:12:32.102Z,17.1
2023-03-19T05:17:38.737Z,16.7
2023-03-19T05:22:45.102Z,19.2
2023-03-19T05:27:51.542Z,18.5
2023-03-19T05:32:57.994Z,19.5
2023-03-19T05:38:04.329Z,23.8
2023-03-19T05:43:34.736Z,17.6
2023-03-19T05:48:37.149Z,12.7
2023-03-19T05:53:23.612Z,16.4
2023-03-19T05:58:30.088Z,16.3
2023-03-19T06:03:36.522Z,30.5
2023-03-19T06:09:06.995Z,15.5
2023-03-19T06:13:49.324Z,18.3
2023-03-19T06:18:59.695Z,14.6
2023-03-19T06:24:22.186Z,15.1
2023-03-19T06:29:08.604Z,16.9
2023-03-19T06:34:14.989Z,12.2
2023-03-19T06:39:21.370Z,16.3
2023-03-19T06:44:27.758Z,12.9
2023-03-19T06:49:54.146Z,14.6
2023-03-19T06:54:40.476Z,22.8
2023-03-19T07:00:10.947Z,15.1
2023-03-19T07:04:53.244Z,15.0
2023-03-19T07:09:59.623Z,13.8
2023-03-19T07:15:06.162Z,14.5
2023-03-19T07:20:12.576Z,13.8
2023-03-19T07:25:18.936Z,22.7
2023-03-19T07:31:09.397Z,15.4
2023-03-19T07:35:55.829Z,14.9
2023-03-19T07:41:02.488Z,13.3
2023-03-19T07:45:44.722Z,16.3
2023-03-19T07:50:51.167Z,14.3
2023-03-19T07:55:57.690Z,24.3
2023-03-19T08:01:38.124Z,14.9
2023-03-19T08:06:35.482Z,14.6
2023-03-19T08:11:55.914Z,18.1
2023-03-19T08:16:48.260Z,19.4
2023-03-19T08:22:32.262Z,21.8
2023-03-19T08:27:34.669Z,15.5
2023-03-19T08:32:45.118Z,14.5
2023-03-19T08:37:27.402Z,17.2
2023-03-19T08:42:33.791Z,21.2
2023-03-19T08:47:40.297Z,17.1
2023-03-19T08:52:46.690Z,16.8
2023-03-19T08:57:53.019Z,17.1
2023-03-19T09:02:59.582Z,16.1
2023-03-19T09:09:06.031Z,15.4
2023-03-19T09:13:12.499Z,22.6
2023-03-19T09:18:18.963Z,17.8
2023-03-19T09:23:25.348Z,18.3
2023-03-19T09:28:31.727Z,19.0
2023-03-19T09:33:38.157Z,16.4
2023-03-19T09:39:04.553Z,21.8
2023-03-19T09:43:50.884Z,17.3
2023-03-19T09:49:41.429Z,16.3
2023-03-19T09:54:03.713Z,19.7
2023-03-19T09:59:11.654Z,16.2
2023-03-19T10:04:18.132Z,14.9
2023-03-19T10:09:24.461Z,15.8
2023-03-19T10:14:30.810Z,16.9
2023-03-19T10:19:40.676Z,14.9
2023-03-19T10:24:45.200Z,14.1
2023-03-19T10:29:51.509Z,13.8
2023-03-19T10:34:57.893Z,14.1
2023-03-19T10:40:28.343Z,16.2
2023-03-19T10:45:35.389Z,13.6
2023-03-19T10:50:18.685Z,18.0
2023-03-19T10:55:45.124Z,13.7
2023-03-19T11:00:31.370Z,14.7
2023-03-19T11:06:01.830Z,13.9
2023-03-19T11:10:44.181Z,16.6
2023-03-19T11:15:50.584Z,21.8
2023-03-19T11:20:56.936Z,13.6
2023-03-19T11:26:03.316Z,16.4
2023-03-19T11:31:09.864Z,15.1
2023-03-19T11:36:16.219Z,17.5
2023-03-19T11:41:56.687Z,14.0
2023-03-19T11:47:05.649Z,14.3
2023-03-19T11:52:10.444Z,14.5
2023-03-19T11:57:40.872Z,16.1
2023-03-19T12:02:43.395Z,14.5
2023-03-19T12:07:29.747Z,14.4
2023-03-19T12:12:36.249Z,13.5
2023-03-19T12:17:42.646Z,14.9
2023-03-19T12:22:49.043Z,13.9
2023-03-19T12:28:21.034Z,13.1
2023-03-19T12:33:02.437Z,11.7
2023-03-19T12:38:29.826Z,18.2
2023-03-19T12:43:16.137Z,13.7
2023-03-19T12:48:24.080Z,14.4
2023-03-19T12:53:30.459Z,14.9
2023-03-19T12:58:38.439Z,16.5
2023-03-19T13:03:44.783Z,27.3
2023-03-19T13:09:11.193Z,13.0
2023-03-19T13:13:57.582Z,14.2
2023-03-19T13:19:27.972Z,15.4
2023-03-19T13:24:10.292Z,13.4
2023-03-19T13:29:17.388Z,16.3
2023-03-19T13:34:23.718Z,13.4
2023-03-19T13:39:30.165Z,13.1
2023-03-19T13:44:36.549Z,13.2
2023-03-19T13:49:43.074Z,15.0
2023-03-19T13:55:13.501Z,13.4
2023-03-19T13:59:55.881Z,15.9
2023-03-19T14:05:02.290Z,13.9
2023-03-19T14:10:08.811Z,13.2
2023-03-19T14:15:17.690Z,13.4
2023-03-19T14:20:26.660Z,17.3
2023-03-19T14:25:28.006Z,13.2
2023-03-19T14:30:34.656Z,14.0
2023-03-19T14:35:40.808Z,12.5
2023-03-19T14:40:47.169Z,14.6
2023-03-19T14:45:53.586Z,15.2
2023-03-19T14:51:23.995Z,13.1
2023-03-19T14:56:06.330Z,12.1
2023-03-19T15:01:36.929Z,13.3
2023-03-19T15:06:09.070Z,15.2
2023-03-19T15:11:49.705Z,11.3
2023-03-19T15:16:32.285Z,12.1
2023-03-19T15:21:38.674Z,11.5
2023-03-19T15:26:45.015Z,12.0
2023-03-19T15:32:04.527Z,11.6
2023-03-19T15:36:59.366Z,14.9
2023-03-19T15:42:33.330Z,11.5
2023-03-19T15:52:24.891Z,15.4
2023-03-19T15:57:55.105Z,14.4
2023-03-19T16:02:38.457Z,13.2
2023-03-19T16:08:18.953Z,12.1
2023-03-19T16:13:49.451Z,16.4
2023-03-19T16:18:32.692Z,14.6
2023-03-19T16:23:39.124Z,15.5
2023-03-19T16:28:45.615Z,12.7
2023-03-19T16:33:51.919Z,15.6
2023-03-19T16:38:58.442Z,18.6
2023-03-19T16:43:54.950Z,25.2
2023-03-19T16:49:01.214Z,19.8
2023-03-19T16:54:17.621Z,28.3
2023-03-19T17:10:53.557Z,27.6
2023-03-19T17:19:24.390Z,26.0
2023-03-19T17:21:05.359Z,22.3
2023-03-19T17:26:40.837Z,28.1
2023-03-19T17:36:49.260Z,29.2
2023-03-19T17:41:35.853Z,28.1
2023-03-19T17:52:31.770Z,26.7
2023-03-19T18:00:51.910Z,32.1
2023-03-19T18:04:03.127Z,23.8
2023-03-19T18:09:10.446Z,28.4
2023-03-19T18:14:16.835Z,30.5
2023-03-19T18:19:46.786Z,37.0
2023-03-19T18:24:37.194Z,34.6
2023-03-19T18:30:03.612Z,31.5
2023-03-19T18:35:06.026Z,30.6
2023-03-19T18:39:54.185Z,32.0
2023-03-19T18:45:04.365Z,28.5
2023-03-19T18:50:08.342Z,34.4
2023-03-19T18:55:14.767Z,27.8
2023-03-19T19:00:21.127Z,22.7
2023-03-19T19:05:27.641Z,31.5
2023-03-19T19:10:34.613Z,33.0
2023-03-19T19:16:02.648Z,29.0
2023-03-19T19:21:03.018Z,28.0
2023-03-19T19:25:55.558Z,31.1
2023-03-19T19:31:02.000Z,28.0
2023-03-19T19:36:08.348Z,30.5
2023-03-19T19:41:04.862Z,25.2
2023-03-19T19:46:21.325Z,25.1
2023-03-19T19:51:27.625Z,32.5
2023-03-19T19:57:02.109Z,36.1
2023-03-19T20:01:40.464Z,27.3
2023-03-19T20:07:10.835Z,23.5
2023-03-19T20:12:13.238Z,22.2
2023-03-19T20:17:00.810Z,28.2
2023-03-19T20:23:07.420Z,26.5
2023-03-19T20:27:13.768Z,27.7
2023-03-19T20:32:44.285Z,25.8
2023-03-19T20:37:26.544Z,21.1
2023-03-19T20:42:52.965Z,42.5
2023-03-19T20:47:29.290Z,32.7
2023-03-19T20:52:45.867Z,28.8
2023-03-19T20:57:51.064Z,39.0
2023-03-19T21:02:58.613Z,37.8
2023-03-19T21:08:04.973Z,29.5
2023-03-19T21:13:11.349Z,35.3
2023-03-19T21:18:21.305Z,32.7
2023-03-19T21:23:27.692Z,37.9
2023-03-19T21:28:34.048Z,25.6
2023-03-19T21:33:40.431Z,38.9
2023-03-19T21:43:53.247Z,33.1
2023-03-19T21:49:24.262Z,41.7
2023-03-19T21:54:30.646Z,29.2
2023-03-19T21:59:13.129Z,31.5
2023-03-19T22:04:19.599Z,34.2
2023-03-19T22:09:26.459Z,33.2
2023-03-19T22:14:32.990Z,40.9
2023-03-19T22:19:39.469Z,45.2
2023-03-19T22:24:45.878Z,37.9
2023-03-19T22:29:52.334Z,40.5
2023-03-19T22:34:58.714Z,27.1
2023-03-19T22:40:05.130Z,34.2
2023-03-19T22:45:11.532Z,38.9
2023-03-19T22:55:24.449Z,30.3
2023-03-19T23:00:30.870Z,43.2
2023-03-19T23:05:57.328Z,49.7
2023-03-19T23:11:59.306Z,31.0
2023-03-19T23:15:53.585Z,29.5
2023-03-19T23:21:00.482Z,45.6
2023-03-19T23:26:06.940Z,37.1
2023-03-19T23:31:13.353Z,39.9
2023-03-19T23:36:19.743Z,39.0
2023-03-19T23:41:26.127Z,40.3
2023-03-19T23:46:56.577Z,41.0
2023-03-19T23:51:38.912Z,43.7
2023-03-19T23:56:51.690Z,34.3
